sensor_id;sensor_type;location;lat;lon;timestamp;P1;durP1;ratioP1;P2;durP2;ratioP2
15976;SDS011;8091;51.914;12.786;2022-08-19T00:01:37;19.55;;;15.18;;
15976;SDS011;8091;51.914;12.786;2022-08-19T00:04:05;15.50;;;13.90;;
15976;SDS011;8091;51.914;12.786;2022-08-19T00:06:33;19.70;;;14.93;;
15976;SDS011;8091;51.914;12.786;2022-08-19T00:09:00;19.05;;;14.25;;
15976;SDS011;8091;51.914;12.786;2022-08-19T00:11:27;17.45;;;15.55;;
15976;SDS011;8091;51.914;12.786;2022-08-19T00:13:53;20.70;;;15.35;;
15976;SDS011;8091;51.914;12.786;2022-08-19T00:16:21;17.60;;;14.60;;
15976;SDS011;8091;51.914;12.786;2022-08-19T00:18:48;17.90;;;15.23;;
15976;SDS011;8091;51.914;12.786;2022-08-19T00:21:14;17.25;;;15.40;;
15976;SDS011;8091;51.914;12.786;2022-08-19T00:23:40;17.73;;;14.10;;
15976;SDS011;8091;51.914;12.786;2022-08-19T00:26:06;16.20;;;13.98;;
15976;SDS011;8091;51.914;12.786;2022-08-19T00:28:33;18.85;;;14.63;;
15976;SDS011;8091;51.914;12.786;2022-08-19T00:31:00;16.55;;;14.25;;
15976;SDS011;8091;51.914;12.786;2022-08-19T00:33:27;15.05;;;13.48;;
15976;SDS011;8091;51.914;12.786;2022-08-19T00:35:57;16.38;;;13.45;;
15976;SDS011;8091;51.914;12.786;2022-08-19T00:38:23;19.10;;;13.85;;
15976;SDS011;8091;51.914;12.786;2022-08-19T00:40:49;16.10;;;13.90;;
15976;SDS011;8091;51.914;12.786;2022-08-19T00:43:17;17.25;;;14.25;;
15976;SDS011;8091;51.914;12.786;2022-08-19T00:45:44;16.63;;;13.60;;
15976;SDS011;8091;51.914;12.786;2022-08-19T00:48:10;15.35;;;12.68;;
15976;SDS011;8091;51.914;12.786;2022-08-19T00:50:36;18.45;;;12.90;;
15976;SDS011;8091;51.914;12.786;2022-08-19T00:53:05;14.88;;;12.13;;
15976;SDS011;8091;51.914;12.786;2022-08-19T00:55:31;15.18;;;13.57;;
15976;SDS011;8091;51.914;12.786;2022-08-19T00:57:59;13.77;;;12.30;;
15976;SDS011;8091;51.914;12.786;2022-08-19T01:00:28;15.88;;;11.75;;
15976;SDS011;8091;51.914;12.786;2022-08-19T01:02:56;22.00;;;12.65;;
15976;SDS011;8091;51.914;12.786;2022-08-19T01:05:23;17.27;;;13.15;;
15976;SDS011;8091;51.914;12.786;2022-08-19T01:07:52;23.35;;;13.65;;
15976;SDS011;8091;51.914;12.786;2022-08-19T01:10:20;16.45;;;11.60;;
15976;SDS011;8091;51.914;12.786;2022-08-19T01:12:50;16.05;;;11.50;;
15976;SDS011;8091;51.914;12.786;2022-08-19T01:15:17;14.57;;;10.48;;
15976;SDS011;8091;51.914;12.786;2022-08-19T01:17:47;14.10;;;9.20;;
15976;SDS011;8091;51.914;12.786;2022-08-19T01:20:16;13.63;;;10.95;;
15976;SDS011;8091;51.914;12.786;2022-08-19T01:22:46;29.27;;;11.23;;
15976;SDS011;8091;51.914;12.786;2022-08-19T01:25:14;15.95;;;10.60;;
15976;SDS011;8091;51.914;12.786;2022-08-19T01:27:43;17.42;;;10.70;;
15976;SDS011;8091;51.914;12.786;2022-08-19T01:30:15;13.23;;;9.43;;
15976;SDS011;8091;51.914;12.786;2022-08-19T01:32:44;27.92;;;15.00;;
15976;SDS011;8091;51.914;12.786;2022-08-19T01:35:10;47.20;;;24.98;;
15976;SDS011;8091;51.914;12.786;2022-08-19T01:37:57;58.58;;;30.50;;
15976;SDS011;8091;51.914;12.786;2022-08-19T01:40:28;18.38;;;11.27;;
15976;SDS011;8091;51.914;12.786;2022-08-19T01:42:56;25.02;;;13.68;;
15976;SDS011;8091;51.914;12.786;2022-08-19T01:45:24;19.88;;;15.30;;
15976;SDS011;8091;51.914;12.786;2022-08-19T01:47:51;23.17;;;16.48;;
15976;SDS011;8091;51.914;12.786;2022-08-19T01:50:17;19.08;;;15.82;;
15976;SDS011;8091;51.914;12.786;2022-08-19T01:52:43;24.95;;;16.60;;
15976;SDS011;8091;51.914;12.786;2022-08-19T01:55:10;20.63;;;17.02;;
15976;SDS011;8091;51.914;12.786;2022-08-19T01:57:40;19.80;;;16.10;;
15976;SDS011;8091;51.914;12.786;2022-08-19T02:00:10;20.25;;;17.85;;
15976;SDS011;8091;51.914;12.786;2022-08-19T02:02:39;18.65;;;14.68;;
15976;SDS011;8091;51.914;12.786;2022-08-19T02:05:05;18.88;;;14.88;;
15976;SDS011;8091;51.914;12.786;2022-08-19T02:07:33;19.00;;;15.02;;
15976;SDS011;8091;51.914;12.786;2022-08-19T02:10:00;16.50;;;13.57;;
15976;SDS011;8091;51.914;12.786;2022-08-19T02:12:30;14.05;;;12.20;;
15976;SDS011;8091;51.914;12.786;2022-08-19T02:14:56;13.73;;;11.35;;
15976;SDS011;8091;51.914;12.786;2022-08-19T02:17:21;8.75;;;7.03;;
15976;SDS011;8091;51.914;12.786;2022-08-19T02:19:47;8.13;;;7.32;;
15976;SDS011;8091;51.914;12.786;2022-08-19T02:22:13;9.63;;;7.20;;
15976;SDS011;8091;51.914;12.786;2022-08-19T02:24:39;7.32;;;6.63;;
15976;SDS011;8091;51.914;12.786;2022-08-19T02:27:05;9.02;;;7.57;;
15976;SDS011;8091;51.914;12.786;2022-08-19T02:29:30;13.65;;;9.55;;
15976;SDS011;8091;51.914;12.786;2022-08-19T02:31:56;14.32;;;11.35;;
15976;SDS011;8091;51.914;12.786;2022-08-19T02:34:23;14.85;;;12.10;;
15976;SDS011;8091;51.914;12.786;2022-08-19T02:36:49;17.40;;;12.75;;
15976;SDS011;8091;51.914;12.786;2022-08-19T02:39:15;15.43;;;13.55;;
15976;SDS011;8091;51.914;12.786;2022-08-19T02:41:41;19.35;;;16.42;;
15976;SDS011;8091;51.914;12.786;2022-08-19T02:44:06;19.30;;;15.15;;
15976;SDS011;8091;51.914;12.786;2022-08-19T02:46:32;20.83;;;16.65;;
15976;SDS011;8091;51.914;12.786;2022-08-19T02:49:05;18.38;;;15.20;;
15976;SDS011;8091;51.914;12.786;2022-08-19T02:51:34;18.50;;;15.98;;
15976;SDS011;8091;51.914;12.786;2022-08-19T02:54:02;18.55;;;16.17;;
15976;SDS011;8091;51.914;12.786;2022-08-19T02:56:29;19.92;;;16.27;;
15976;SDS011;8091;51.914;12.786;2022-08-19T02:58:56;20.02;;;16.00;;
15976;SDS011;8091;51.914;12.786;2022-08-19T03:01:26;20.75;;;16.20;;
15976;SDS011;8091;51.914;12.786;2022-08-19T03:03:57;18.15;;;16.10;;
15976;SDS011;8091;51.914;12.786;2022-08-19T03:06:25;20.95;;;17.13;;
15976;SDS011;8091;51.914;12.786;2022-08-19T03:08:51;17.98;;;15.57;;
15976;SDS011;8091;51.914;12.786;2022-08-19T03:11:22;17.50;;;15.68;;
15976;SDS011;8091;51.914;12.786;2022-08-19T03:13:52;18.00;;;15.18;;
15976;SDS011;8091;51.914;12.786;2022-08-19T03:16:19;17.90;;;15.25;;
15976;SDS011;8091;51.914;12.786;2022-08-19T03:18:46;18.15;;;16.25;;
15976;SDS011;8091;51.914;12.786;2022-08-19T03:21:19;17.15;;;14.98;;
15976;SDS011;8091;51.914;12.786;2022-08-19T03:23:46;16.80;;;15.10;;
15976;SDS011;8091;51.914;12.786;2022-08-19T03:26:12;18.63;;;16.63;;
15976;SDS011;8091;51.914;12.786;2022-08-19T03:28:39;19.77;;;16.00;;
15976;SDS011;8091;51.914;12.786;2022-08-19T03:31:07;17.63;;;15.68;;
15976;SDS011;8091;51.914;12.786;2022-08-19T03:33:37;16.98;;;15.20;;
15976;SDS011;8091;51.914;12.786;2022-08-19T03:38:39;20.08;;;16.08;;
15976;SDS011;8091;51.914;12.786;2022-08-19T03:41:07;18.30;;;16.15;;
15976;SDS011;8091;51.914;12.786;2022-08-19T03:43:37;16.98;;;14.90;;
15976;SDS011;8091;51.914;12.786;2022-08-19T03:46:06;18.58;;;16.58;;
15976;SDS011;8091;51.914;12.786;2022-08-19T03:48:33;19.75;;;17.65;;
15976;SDS011;8091;51.914;12.786;2022-08-19T03:51:00;20.05;;;18.02;;
15976;SDS011;8091;51.914;12.786;2022-08-19T03:53:29;17.35;;;15.55;;
15976;SDS011;8091;51.914;12.786;2022-08-19T03:55:56;17.67;;;15.35;;
15976;SDS011;8091;51.914;12.786;2022-08-19T03:58:25;17.15;;;14.70;;
15976;SDS011;8091;51.914;12.786;2022-08-19T04:00:53;17.25;;;14.40;;
15976;SDS011;8091;51.914;12.786;2022-08-19T04:03:18;17.00;;;15.07;;
15976;SDS011;8091;51.914;12.786;2022-08-19T04:05:44;18.88;;;15.45;;
15976;SDS011;8091;51.914;12.786;2022-08-19T04:08:11;16.15;;;14.35;;
15976;SDS011;8091;51.914;12.786;2022-08-19T04:10:37;17.42;;;14.05;;
15976;SDS011;8091;51.914;12.786;2022-08-19T04:13:03;18.05;;;15.60;;
15976;SDS011;8091;51.914;12.786;2022-08-19T04:15:31;17.50;;;15.63;;
15976;SDS011;8091;51.914;12.786;2022-08-19T04:18:03;17.75;;;15.85;;
15976;SDS011;8091;51.914;12.786;2022-08-19T04:20:32;18.02;;;16.15;;
15976;SDS011;8091;51.914;12.786;2022-08-19T04:23:03;17.63;;;15.73;;
15976;SDS011;8091;51.914;12.786;2022-08-19T04:25:34;17.73;;;15.88;;
15976;SDS011;8091;51.914;12.786;2022-08-19T04:28:01;18.13;;;16.30;;
15976;SDS011;8091;51.914;12.786;2022-08-19T04:30:27;19.38;;;17.38;;
15976;SDS011;8091;51.914;12.786;2022-08-19T04:32:52;18.40;;;16.50;;
15976;SDS011;8091;51.914;12.786;2022-08-19T04:35:18;19.98;;;16.35;;
15976;SDS011;8091;51.914;12.786;2022-08-19T04:37:43;19.58;;;16.15;;
15976;SDS011;8091;51.914;12.786;2022-08-19T04:40:09;22.63;;;16.35;;
15976;SDS011;8091;51.914;12.786;2022-08-19T04:42:54;20.02;;;17.38;;
15976;SDS011;8091;51.914;12.786;2022-08-19T04:45:19;21.95;;;17.50;;
15976;SDS011;8091;51.914;12.786;2022-08-19T04:47:45;19.95;;;17.77;;
15976;SDS011;8091;51.914;12.786;2022-08-19T04:50:11;24.23;;;19.50;;
15976;SDS011;8091;51.914;12.786;2022-08-19T04:52:37;26.27;;;20.08;;
15976;SDS011;8091;51.914;12.786;2022-08-19T04:55:07;28.85;;;19.27;;
15976;SDS011;8091;51.914;12.786;2022-08-19T04:57:33;24.40;;;19.05;;
15976;SDS011;8091;51.914;12.786;2022-08-19T04:59:58;26.98;;;19.13;;
15976;SDS011;8091;51.914;12.786;2022-08-19T05:02:24;25.80;;;18.02;;
15976;SDS011;8091;51.914;12.786;2022-08-19T05:04:50;22.75;;;17.85;;
15976;SDS011;8091;51.914;12.786;2022-08-19T05:07:21;20.13;;;18.00;;
15976;SDS011;8091;51.914;12.786;2022-08-19T05:09:47;24.60;;;18.02;;
15976;SDS011;8091;51.914;12.786;2022-08-19T05:12:13;25.35;;;18.52;;
15976;SDS011;8091;51.914;12.786;2022-08-19T05:14:38;22.73;;;18.50;;
15976;SDS011;8091;51.914;12.786;2022-08-19T05:17:04;23.48;;;19.23;;
15976;SDS011;8091;51.914;12.786;2022-08-19T05:19:30;27.45;;;20.15;;
15976;SDS011;8091;51.914;12.786;2022-08-19T05:22:13;21.40;;;19.20;;
15976;SDS011;8091;51.914;12.786;2022-08-19T05:24:58;22.30;;;19.73;;
15976;SDS011;8091;51.914;12.786;2022-08-19T05:27:25;22.55;;;19.30;;
15976;SDS011;8091;51.914;12.786;2022-08-19T05:29:51;24.52;;;20.60;;
15976;SDS011;8091;51.914;12.786;2022-08-19T05:32:16;21.98;;;19.67;;
15976;SDS011;8091;51.914;12.786;2022-08-19T05:34:42;23.52;;;20.30;;
15976;SDS011;8091;51.914;12.786;2022-08-19T05:37:07;26.10;;;20.27;;
15976;SDS011;8091;51.914;12.786;2022-08-19T05:39:34;22.35;;;19.60;;
15976;SDS011;8091;51.914;12.786;2022-08-19T05:42:03;23.90;;;20.20;;
15976;SDS011;8091;51.914;12.786;2022-08-19T05:44:34;20.48;;;18.27;;
15976;SDS011;8091;51.914;12.786;2022-08-19T05:47:04;21.23;;;17.70;;
15976;SDS011;8091;51.914;12.786;2022-08-19T05:49:32;21.15;;;16.67;;
15976;SDS011;8091;51.914;12.786;2022-08-19T05:52:01;21.02;;;18.02;;
15976;SDS011;8091;51.914;12.786;2022-08-19T05:54:32;15.88;;;14.00;;
15976;SDS011;8091;51.914;12.786;2022-08-19T05:56:57;17.75;;;14.82;;
15976;SDS011;8091;51.914;12.786;2022-08-19T05:59:24;17.77;;;15.88;;
15976;SDS011;8091;51.914;12.786;2022-08-19T06:01:51;14.50;;;12.88;;
15976;SDS011;8091;51.914;12.786;2022-08-19T06:04:20;14.43;;;12.50;;
15976;SDS011;8091;51.914;12.786;2022-08-19T06:06:47;14.55;;;12.90;;
15976;SDS011;8091;51.914;12.786;2022-08-19T06:09:13;13.38;;;11.73;;
15976;SDS011;8091;51.914;12.786;2022-08-19T06:11:40;15.07;;;10.98;;
15976;SDS011;8091;51.914;12.786;2022-08-19T06:14:20;13.55;;;10.88;;
15976;SDS011;8091;51.914;12.786;2022-08-19T06:16:49;13.52;;;10.65;;
15976;SDS011;8091;51.914;12.786;2022-08-19T06:19:17;12.40;;;11.20;;
15976;SDS011;8091;51.914;12.786;2022-08-19T06:21:46;12.25;;;11.05;;
15976;SDS011;8091;51.914;12.786;2022-08-19T06:24:14;11.95;;;10.82;;
15976;SDS011;8091;51.914;12.786;2022-08-19T06:26:43;12.48;;;11.18;;
15976;SDS011;8091;51.914;12.786;2022-08-19T06:29:11;11.20;;;10.10;;
15976;SDS011;8091;51.914;12.786;2022-08-19T06:31:41;12.98;;;11.10;;
15976;SDS011;8091;51.914;12.786;2022-08-19T06:34:11;12.07;;;10.43;;
15976;SDS011;8091;51.914;12.786;2022-08-19T06:36:40;11.95;;;10.73;;
15976;SDS011;8091;51.914;12.786;2022-08-19T06:39:12;11.43;;;10.32;;
15976;SDS011;8091;51.914;12.786;2022-08-19T06:41:41;11.57;;;10.40;;
15976;SDS011;8091;51.914;12.786;2022-08-19T06:44:11;11.50;;;9.95;;
15976;SDS011;8091;51.914;12.786;2022-08-19T06:46:38;12.43;;;10.93;;
15976;SDS011;8091;51.914;12.786;2022-08-19T06:49:04;10.80;;;9.70;;
15976;SDS011;8091;51.914;12.786;2022-08-19T06:51:30;11.68;;;10.48;;
15976;SDS011;8091;51.914;12.786;2022-08-19T06:53:57;11.40;;;10.30;;
15976;SDS011;8091;51.914;12.786;2022-08-19T06:56:25;11.60;;;10.45;;
15976;SDS011;8091;51.914;12.786;2022-08-19T06:58:58;12.00;;;10.80;;
15976;SDS011;8091;51.914;12.786;2022-08-19T07:01:27;13.25;;;11.85;;
15976;SDS011;8091;51.914;12.786;2022-08-19T07:03:53;19.52;;;14.98;;
15976;SDS011;8091;51.914;12.786;2022-08-19T07:06:19;19.58;;;15.13;;
15976;SDS011;8091;51.914;12.786;2022-08-19T07:08:46;20.20;;;17.33;;
15976;SDS011;8091;51.914;12.786;2022-08-19T07:11:14;19.58;;;17.35;;
15976;SDS011;8091;51.914;12.786;2022-08-19T07:13:42;23.52;;;17.73;;
15976;SDS011;8091;51.914;12.786;2022-08-19T07:16:10;20.08;;;15.82;;
15976;SDS011;8091;51.914;12.786;2022-08-19T07:18:38;19.65;;;16.15;;
15976;SDS011;8091;51.914;12.786;2022-08-19T07:21:06;19.98;;;16.60;;
15976;SDS011;8091;51.914;12.786;2022-08-19T07:23:36;18.33;;;16.10;;
15976;SDS011;8091;51.914;12.786;2022-08-19T07:28:42;18.52;;;15.93;;
15976;SDS011;8091;51.914;12.786;2022-08-19T07:31:10;20.75;;;15.98;;
15976;SDS011;8091;51.914;12.786;2022-08-19T07:33:37;19.90;;;16.08;;
15976;SDS011;8091;51.914;12.786;2022-08-19T07:36:04;21.20;;;16.45;;
15976;SDS011;8091;51.914;12.786;2022-08-19T07:38:32;19.65;;;16.05;;
15976;SDS011;8091;51.914;12.786;2022-08-19T07:40:58;20.10;;;15.45;;
15976;SDS011;8091;51.914;12.786;2022-08-19T07:43:25;20.20;;;15.88;;
15976;SDS011;8091;51.914;12.786;2022-08-19T07:45:52;21.55;;;15.77;;
15976;SDS011;8091;51.914;12.786;2022-08-19T07:48:21;17.63;;;14.75;;
15976;SDS011;8091;51.914;12.786;2022-08-19T07:50:52;18.48;;;16.20;;
15976;SDS011;8091;51.914;12.786;2022-08-19T07:53:19;17.83;;;15.48;;
15976;SDS011;8091;51.914;12.786;2022-08-19T07:55:45;19.08;;;16.17;;
15976;SDS011;8091;51.914;12.786;2022-08-19T07:58:12;20.60;;;16.52;;
15976;SDS011;8091;51.914;12.786;2022-08-19T08:00:41;21.27;;;17.42;;
15976;SDS011;8091;51.914;12.786;2022-08-19T08:03:08;24.90;;;17.27;;
15976;SDS011;8091;51.914;12.786;2022-08-19T08:05:34;20.63;;;18.02;;
15976;SDS011;8091;51.914;12.786;2022-08-19T08:08:18;18.30;;;16.42;;
15976;SDS011;8091;51.914;12.786;2022-08-19T08:11:02;21.33;;;16.98;;
15976;SDS011;8091;51.914;12.786;2022-08-19T08:13:29;20.67;;;17.27;;
15976;SDS011;8091;51.914;12.786;2022-08-19T08:15:55;19.83;;;17.73;;
15976;SDS011;8091;51.914;12.786;2022-08-19T08:18:21;20.92;;;18.73;;
15976;SDS011;8091;51.914;12.786;2022-08-19T08:20:50;22.40;;;18.75;;
15976;SDS011;8091;51.914;12.786;2022-08-19T08:23:16;22.00;;;18.25;;
15976;SDS011;8091;51.914;12.786;2022-08-19T08:25:47;23.55;;;18.83;;
15976;SDS011;8091;51.914;12.786;2022-08-19T08:28:14;20.70;;;17.67;;
15976;SDS011;8091;51.914;12.786;2022-08-19T08:30:41;19.77;;;17.20;;
15976;SDS011;8091;51.914;12.786;2022-08-19T08:33:08;22.70;;;19.25;;
15976;SDS011;8091;51.914;12.786;2022-08-19T08:35:34;20.80;;;18.10;;
15976;SDS011;8091;51.914;12.786;2022-08-19T08:38:00;22.75;;;19.27;;
15976;SDS011;8091;51.914;12.786;2022-08-19T08:43:28;21.90;;;19.02;;
15976;SDS011;8091;51.914;12.786;2022-08-19T08:48:44;26.08;;;19.95;;
15976;SDS011;8091;51.914;12.786;2022-08-19T08:51:22;25.10;;;21.33;;
15976;SDS011;8091;51.914;12.786;2022-08-19T08:53:52;28.45;;;22.17;;
15976;SDS011;8091;51.914;12.786;2022-08-19T08:56:19;26.48;;;21.30;;
15976;SDS011;8091;51.914;12.786;2022-08-19T09:01:35;22.98;;;19.52;;
15976;SDS011;8091;51.914;12.786;2022-08-19T09:04:05;26.77;;;21.08;;
15976;SDS011;8091;51.914;12.786;2022-08-19T09:09:31;30.48;;;22.05;;
15976;SDS011;8091;51.914;12.786;2022-08-19T09:12:18;24.52;;;20.38;;
15976;SDS011;8091;51.914;12.786;2022-08-19T09:15:07;29.60;;;20.30;;
15976;SDS011;8091;51.914;12.786;2022-08-19T09:17:36;23.48;;;19.63;;
15976;SDS011;8091;51.914;12.786;2022-08-19T09:22:35;25.67;;;20.60;;
15976;SDS011;8091;51.914;12.786;2022-08-19T09:25:05;23.20;;;19.80;;
15976;SDS011;8091;51.914;12.786;2022-08-19T09:27:32;25.17;;;18.65;;
15976;SDS011;8091;51.914;12.786;2022-08-19T09:29:58;23.35;;;19.42;;
15976;SDS011;8091;51.914;12.786;2022-08-19T09:32:23;24.30;;;18.65;;
15976;SDS011;8091;51.914;12.786;2022-08-19T09:34:50;28.70;;;20.75;;
15976;SDS011;8091;51.914;12.786;2022-08-19T09:37:19;27.08;;;19.08;;
15976;SDS011;8091;51.914;12.786;2022-08-19T09:39:46;23.92;;;19.38;;
15976;SDS011;8091;51.914;12.786;2022-08-19T09:42:11;25.40;;;19.73;;
15976;SDS011;8091;51.914;12.786;2022-08-19T09:44:41;28.23;;;20.13;;
15976;SDS011;8091;51.914;12.786;2022-08-19T09:47:08;25.10;;;18.13;;
15976;SDS011;8091;51.914;12.786;2022-08-19T09:49:36;23.13;;;18.60;;
15976;SDS011;8091;51.914;12.786;2022-08-19T09:52:03;21.05;;;18.40;;
15976;SDS011;8091;51.914;12.786;2022-08-19T09:54:29;23.02;;;17.85;;
15976;SDS011;8091;51.914;12.786;2022-08-19T09:56:55;23.48;;;17.33;;
15976;SDS011;8091;51.914;12.786;2022-08-19T09:59:25;21.13;;;17.52;;
15976;SDS011;8091;51.914;12.786;2022-08-19T10:01:51;20.08;;;16.75;;
15976;SDS011;8091;51.914;12.786;2022-08-19T10:04:17;21.13;;;16.05;;
15976;SDS011;8091;51.914;12.786;2022-08-19T10:06:42;19.25;;;15.93;;
15976;SDS011;8091;51.914;12.786;2022-08-19T10:09:09;18.88;;;15.27;;
15976;SDS011;8091;51.914;12.786;2022-08-19T10:11:36;19.70;;;14.02;;
15976;SDS011;8091;51.914;12.786;2022-08-19T10:14:05;18.35;;;14.85;;
15976;SDS011;8091;51.914;12.786;2022-08-19T10:16:31;20.38;;;15.15;;
15976;SDS011;8091;51.914;12.786;2022-08-19T10:18:57;18.48;;;14.98;;
15976;SDS011;8091;51.914;12.786;2022-08-19T10:21:25;18.98;;;15.40;;
15976;SDS011;8091;51.914;12.786;2022-08-19T10:23:54;15.57;;;13.95;;
15976;SDS011;8091;51.914;12.786;2022-08-19T10:26:27;21.10;;;16.05;;
15976;SDS011;8091;51.914;12.786;2022-08-19T10:28:54;18.42;;;15.13;;
15976;SDS011;8091;51.914;12.786;2022-08-19T10:31:25;18.25;;;15.85;;
15976;SDS011;8091;51.914;12.786;2022-08-19T10:33:53;17.80;;;15.85;;
15976;SDS011;8091;51.914;12.786;2022-08-19T10:36:23;19.30;;;16.27;;
15976;SDS011;8091;51.914;12.786;2022-08-19T10:38:58;22.33;;;15.82;;
15976;SDS011;8091;51.914;12.786;2022-08-19T10:41:27;20.75;;;15.90;;
15976;SDS011;8091;51.914;12.786;2022-08-19T10:43:56;22.05;;;17.35;;
15976;SDS011;8091;51.914;12.786;2022-08-19T10:46:25;22.50;;;16.38;;
15976;SDS011;8091;51.914;12.786;2022-08-19T10:48:52;21.98;;;17.45;;
15976;SDS011;8091;51.914;12.786;2022-08-19T10:51:19;19.90;;;15.23;;
15976;SDS011;8091;51.914;12.786;2022-08-19T10:54:04;20.67;;;15.98;;
15976;SDS011;8091;51.914;12.786;2022-08-19T10:56:30;26.13;;;17.75;;
15976;SDS011;8091;51.914;12.786;2022-08-19T10:59:16;19.85;;;16.50;;
15976;SDS011;8091;51.914;12.786;2022-08-19T11:01:44;21.30;;;16.38;;
15976;SDS011;8091;51.914;12.786;2022-08-19T11:04:11;23.92;;;18.40;;
15976;SDS011;8091;51.914;12.786;2022-08-19T11:06:38;21.58;;;16.95;;
15976;SDS011;8091;51.914;12.786;2022-08-19T11:09:08;23.92;;;18.80;;
15976;SDS011;8091;51.914;12.786;2022-08-19T11:11:35;24.70;;;18.20;;
15976;SDS011;8091;51.914;12.786;2022-08-19T11:14:05;33.22;;;16.88;;
15976;SDS011;8091;51.914;12.786;2022-08-19T11:16:32;24.83;;;18.23;;
15976;SDS011;8091;51.914;12.786;2022-08-19T11:18:58;24.52;;;17.33;;
15976;SDS011;8091;51.914;12.786;2022-08-19T11:21:31;22.75;;;17.63;;
15976;SDS011;8091;51.914;12.786;2022-08-19T11:24:03;23.23;;;18.08;;
15976;SDS011;8091;51.914;12.786;2022-08-19T11:26:31;21.60;;;17.30;;
15976;SDS011;8091;51.914;12.786;2022-08-19T11:28:57;23.85;;;17.88;;
15976;SDS011;8091;51.914;12.786;2022-08-19T11:31:26;25.15;;;17.83;;
15976;SDS011;8091;51.914;12.786;2022-08-19T11:33:53;23.13;;;18.60;;
15976;SDS011;8091;51.914;12.786;2022-08-19T11:36:21;27.55;;;19.27;;
15976;SDS011;8091;51.914;12.786;2022-08-19T11:38:48;24.55;;;18.92;;
15976;SDS011;8091;51.914;12.786;2022-08-19T11:41:15;23.90;;;19.38;;
15976;SDS011;8091;51.914;12.786;2022-08-19T11:43:42;22.63;;;17.80;;
15976;SDS011;8091;51.914;12.786;2022-08-19T11:46:09;23.25;;;17.48;;
15976;SDS011;8091;51.914;12.786;2022-08-19T11:48:36;23.17;;;17.90;;
15976;SDS011;8091;51.914;12.786;2022-08-19T11:51:03;24.67;;;18.40;;
15976;SDS011;8091;51.914;12.786;2022-08-19T11:53:31;25.40;;;18.40;;
15976;SDS011;8091;51.914;12.786;2022-08-19T11:55:57;22.58;;;18.15;;
15976;SDS011;8091;51.914;12.786;2022-08-19T11:58:23;21.02;;;17.23;;
15976;SDS011;8091;51.914;12.786;2022-08-19T12:00:50;23.50;;;17.52;;
15976;SDS011;8091;51.914;12.786;2022-08-19T12:03:16;25.73;;;19.73;;
15976;SDS011;8091;51.914;12.786;2022-08-19T12:05:43;22.95;;;17.63;;
15976;SDS011;8091;51.914;12.786;2022-08-19T12:08:09;25.40;;;18.30;;
15976;SDS011;8091;51.914;12.786;2022-08-19T12:10:36;25.67;;;16.75;;
15976;SDS011;8091;51.914;12.786;2022-08-19T12:13:02;18.70;;;16.60;;
15976;SDS011;8091;51.914;12.786;2022-08-19T12:15:27;18.08;;;16.15;;
15976;SDS011;8091;51.914;12.786;2022-08-19T12:17:54;17.35;;;15.43;;
15976;SDS011;8091;51.914;12.786;2022-08-19T12:20:21;18.10;;;15.13;;
15976;SDS011;8091;51.914;12.786;2022-08-19T12:22:48;17.92;;;15.63;;
15976;SDS011;8091;51.914;12.786;2022-08-19T12:25:15;17.77;;;15.25;;
15976;SDS011;8091;51.914;12.786;2022-08-19T12:27:40;18.95;;;14.60;;
15976;SDS011;8091;51.914;12.786;2022-08-19T12:30:07;15.48;;;13.65;;
15976;SDS011;8091;51.914;12.786;2022-08-19T12:32:34;15.77;;;13.73;;
15976;SDS011;8091;51.914;12.786;2022-08-19T12:35:00;18.17;;;12.55;;
15976;SDS011;8091;51.914;12.786;2022-08-19T12:37:26;14.52;;;12.98;;
15976;SDS011;8091;51.914;12.786;2022-08-19T12:39:51;15.68;;;13.48;;
15976;SDS011;8091;51.914;12.786;2022-08-19T12:42:17;15.85;;;13.18;;
15976;SDS011;8091;51.914;12.786;2022-08-19T12:44:43;13.75;;;12.20;;
15976;SDS011;8091;51.914;12.786;2022-08-19T12:47:11;15.73;;;13.52;;
15976;SDS011;8091;51.914;12.786;2022-08-19T12:49:38;15.25;;;13.68;;
15976;SDS011;8091;51.914;12.786;2022-08-19T12:52:05;15.00;;;12.60;;
15976;SDS011;8091;51.914;12.786;2022-08-19T12:54:33;14.60;;;12.98;;
15976;SDS011;8091;51.914;12.786;2022-08-19T12:56:59;14.48;;;12.82;;
15976;SDS011;8091;51.914;12.786;2022-08-19T12:59:25;14.82;;;13.15;;
15976;SDS011;8091;51.914;12.786;2022-08-19T13:01:51;15.38;;;12.73;;
15976;SDS011;8091;51.914;12.786;2022-08-19T13:04:17;16.48;;;13.60;;
15976;SDS011;8091;51.914;12.786;2022-08-19T13:06:43;16.85;;;13.25;;
15976;SDS011;8091;51.914;12.786;2022-08-19T13:09:09;17.15;;;12.75;;
15976;SDS011;8091;51.914;12.786;2022-08-19T13:11:36;15.25;;;13.45;;
15976;SDS011;8091;51.914;12.786;2022-08-19T13:14:02;15.45;;;13.82;;
15976;SDS011;8091;51.914;12.786;2022-08-19T13:16:29;14.45;;;12.77;;
15976;SDS011;8091;51.914;12.786;2022-08-19T13:18:55;16.67;;;13.68;;
15976;SDS011;8091;51.914;12.786;2022-08-19T13:21:23;14.55;;;12.45;;
15976;SDS011;8091;51.914;12.786;2022-08-19T13:23:52;17.13;;;13.18;;
15976;SDS011;8091;51.914;12.786;2022-08-19T13:26:18;17.27;;;13.85;;
15976;SDS011;8091;51.914;12.786;2022-08-19T13:28:44;14.65;;;13.13;;
15976;SDS011;8091;51.914;12.786;2022-08-19T13:31:29;16.63;;;13.55;;
15976;SDS011;8091;51.914;12.786;2022-08-19T13:34:16;14.73;;;13.23;;
15976;SDS011;8091;51.914;12.786;2022-08-19T13:36:44;15.32;;;13.23;;
15976;SDS011;8091;51.914;12.786;2022-08-19T13:39:10;22.85;;;13.65;;
15976;SDS011;8091;51.914;12.786;2022-08-19T13:41:37;16.65;;;13.85;;
15976;SDS011;8091;51.914;12.786;2022-08-19T13:44:12;18.48;;;13.90;;
15976;SDS011;8091;51.914;12.786;2022-08-19T13:46:38;15.20;;;13.60;;
15976;SDS011;8091;51.914;12.786;2022-08-19T13:49:04;19.67;;;14.48;;
15976;SDS011;8091;51.914;12.786;2022-08-19T13:51:30;17.85;;;15.10;;
15976;SDS011;8091;51.914;12.786;2022-08-19T13:53:55;18.52;;;15.85;;
15976;SDS011;8091;51.914;12.786;2022-08-19T13:56:21;20.45;;;15.23;;
15976;SDS011;8091;51.914;12.786;2022-08-19T13:58:47;18.25;;;15.02;;
15976;SDS011;8091;51.914;12.786;2022-08-19T14:01:17;16.58;;;14.38;;
15976;SDS011;8091;51.914;12.786;2022-08-19T14:03:45;20.05;;;14.80;;
15976;SDS011;8091;51.914;12.786;2022-08-19T14:06:10;16.73;;;15.02;;
15976;SDS011;8091;51.914;12.786;2022-08-19T14:08:36;15.13;;;13.23;;
15976;SDS011;8091;51.914;12.786;2022-08-19T14:11:04;15.65;;;13.65;;
15976;SDS011;8091;51.914;12.786;2022-08-19T14:13:30;25.50;;;19.30;;
15976;SDS011;8091;51.914;12.786;2022-08-19T14:15:58;17.80;;;14.63;;
15976;SDS011;8091;51.914;12.786;2022-08-19T14:18:24;19.50;;;13.15;;
15976;SDS011;8091;51.914;12.786;2022-08-19T14:20:50;14.90;;;12.30;;
15976;SDS011;8091;51.914;12.786;2022-08-19T14:23:16;15.18;;;12.57;;
15976;SDS011;8091;51.914;12.786;2022-08-19T14:25:42;13.35;;;11.80;;
15976;SDS011;8091;51.914;12.786;2022-08-19T14:28:08;16.98;;;12.23;;
15976;SDS011;8091;51.914;12.786;2022-08-19T14:30:34;15.70;;;11.98;;
15976;SDS011;8091;51.914;12.786;2022-08-19T14:33:02;14.57;;;12.35;;
15976;SDS011;8091;51.914;12.786;2022-08-19T14:35:29;19.08;;;12.18;;
15976;SDS011;8091;51.914;12.786;2022-08-19T14:38:01;16.75;;;11.43;;
15976;SDS011;8091;51.914;12.786;2022-08-19T14:40:29;19.13;;;12.75;;
15976;SDS011;8091;51.914;12.786;2022-08-19T14:42:56;14.80;;;12.30;;
15976;SDS011;8091;51.914;12.786;2022-08-19T14:45:29;14.07;;;12.52;;